Speed, North Carolina
Current Conditions -  °F | °C
As of 12:35 PM on Friday 24 Oct 2014 (Local Time) from KETC Reporting Station
Clear Clear  
Wind Chill: 68°   Ceiling: Unl
Heat Index: 68°   Visibility: 10mi
Dew Point: 46°   Wind: 5mph
Humidity: 45%   Direction: 360°N
Pressure: 30.02"   Gusts: NA
Location:  35.97°N, 77.45°W
Report Text: KETC 241635Z AUTO 36004KT 10SM CLR 20/08 A3002 RMK AO2 T02020079
Loading
Personal Weather Stations






























Interactive Weather Map
Tropical Storm Tracking
New forecast layout! Learn more

10-Day Weather Forecast

Advertisements
Track Severe Weather on mobile